Startpagina
METAR-TAF:

METAR-TAF

Vliegvelden :

Bamako, Mali

Luchthaven Bamako

breedte: 12-32N, lengte: 007-57W, hoogte: 380 m

Actueel weer

Dit bericht is 31 minuten geleden gemaakt, om 04:00 UTC
Wind 6 kt uit het noorden
Temperatuur 21°C
Vochtigheid 28%
Druk 1013 hPa
Zicht: 8000 m

METAR: GABS 140400Z 01006KT 8000 NSC 21/02 Q1013 NOSIG

Tijdstip: 04:31 (04:31 UTC)

Verwachting

Dit bericht is 5 uur en het 26 minuten geleden gemaakt, om 23:05 UTC
Verwachting geldig van 14 om 00 UTC tot 15 om 06 UTC
Wind 10 kt uit het noorden
Zicht: 6000 m
Kans 40% :
Tijdelijke
van 14 om 06 UTC tot 14 om 11 UTC
Zicht: 3000 m
Heiigheid
Kans 40% :
Tijdelijke
van 14 om 14 UTC tot 14 om 20 UTC
Wind 10 kt uit het oostnoordoosten
Kans 40% :
Tijdelijke
van 14 om 17 UTC tot 14 om 22 UTC
Zicht: 4000 m
Heiigheid

TAF: GABS 132305Z 1400/1506 36010KT 6000 NSC PROB40 TEMPO 1406/1411 3000 HZ PROB40 TEMPO 1414/1420 07010KT PROB40 TEMPO 1417/1422 4000 HZ

Waarnemingen en weersverwachtingen van meer dan 4000 vliegvelden (METAR en TAF).

De beschikbare stations zijn de gele en rode punten op de kaart.

Ga met uw muis naar het station om de naam te zien.

Klik dan om waarnemingen en weersverwachtingen te zien.

kaart wijzigen: klik op de groene knoppen met een zwart kruis om in te zoomen, op de groene knop met een streepje om uit te zoomen of op de groene pijlen voor aangrenzende kaarten.


METAR-TAF: